Terminal Aerodrome Forecast
Issued by NWS

Home | Current Version | Previous Version | Text Only | Print | Product List | Glossary On
Versions: 1 2 3 4 5 6 7 8 9 10 11 12 13 14 15 16 17 18 19 20 21 22 23 24 25
000
FTUS44 KHGX 251136
TAFUTS
TAF
KUTS 251136Z 2512/2612 VRB04KT P6SM FEW090
     FM251400 13007KT P6SM VCTS BKN040CB
      TEMPO 2516/2520 VRB15KT 4SM TSRA BKN020CB
     FM260000 15005KT P6SM VCSH SCT250
     FM260200 VRB03KT P6SM BKN150=

USA.gov is the U.S. government's official web portal to all federal, state and local government web resources and services.